Time;durP1;ratioP1;P1;durP2;ratioP2;P2;SDS_P1;SDS_P2;PMS_P1;PMS_P2;Temp;Humidity;BMP_temperature;BMP_pressure;BME280_temperature;BME280_humidity;BME280_pressure;Samples;Min_cycle;Max_cycle;Signal;HPM_P1;HPM_P2
2023/05/21 00:01:04;;;;;;;11.88;5.38;;;;;;;14.68;100.00;101779.03;4991006;28;20052;-67
2023/05/21 00:03:31;;;;;;;11.18;4.45;;;;;;;14.71;100.00;101786.81;4990745;28;20052;-66
2023/05/21 00:06:00;;;;;;;12.25;4.28;;;;;;;14.64;100.00;101786.19;4990041;28;20042;-66
2023/05/21 00:08:27;;;;;;;11.10;5.03;;;;;;;14.62;100.00;101780.13;4991443;28;20046;-67
2023/05/21 00:10:54;;;;;;;13.80;5.13;;;;;;;14.61;100.00;101778.41;4991325;28;20098;-66
2023/05/21 00:13:21;;;;;;;17.67;5.80;;;;;;;14.53;100.00;101776.03;4991765;28;20054;-66
2023/05/21 00:15:48;;;;;;;13.77;5.40;;;;;;;14.52;100.00;101773.44;4989410;28;20046;-67
2023/05/21 00:18:15;;;;;;;11.32;4.55;;;;;;;14.69;100.00;101780.75;4989646;28;20089;-66
2023/05/21 00:20:41;;;;;;;11.73;4.30;;;;;;;14.46;100.00;101749.97;4991048;28;20085;-67
2023/05/21 00:23:09;;;;;;;13.07;5.70;;;;;;;14.53;100.00;101770.75;4991197;28;20050;-66
2023/05/21 00:25:35;;;;;;;13.48;5.95;;;;;;;14.51;100.00;101777.88;4990117;28;20050;-66
2023/05/21 00:28:02;;;;;;;13.02;4.93;;;;;;;14.57;100.00;101782.03;4990992;28;20082;-66
2023/05/21 00:30:29;;;;;;;13.00;4.90;;;;;;;14.68;100.00;101784.28;4991320;28;20088;-66
2023/05/21 00:32:57;;;;;;;14.32;4.63;;;;;;;14.68;100.00;101782.53;4998724;28;20093;-66
2023/05/21 00:35:24;;;;;;;14.60;4.50;;;;;;;14.59;100.00;101786.38;4989554;28;20052;-66
2023/05/21 00:37:52;;;;;;;11.50;4.30;;;;;;;14.55;100.00;101775.97;4991365;28;20492;-66
2023/05/21 00:40:20;;;;;;;16.52;6.00;;;;;;;14.30;100.00;101778.66;4989868;28;20093;-66
2023/05/21 00:42:47;;;;;;;14.35;6.50;;;;;;;13.77;100.00;101777.00;4989669;28;20057;-66
2023/05/21 00:45:13;;;;;;;17.80;8.02;;;;;;;13.42;100.00;101773.78;4989307;28;20054;-66
2023/05/21 00:47:42;;;;;;;17.52;6.90;;;;;;;13.11;100.00;101783.50;4990584;28;20046;-66
2023/05/21 00:50:10;;;;;;;18.77;6.45;;;;;;;12.86;100.00;101770.25;4990570;28;20054;-66
2023/05/21 00:52:40;;;;;;;20.63;8.55;;;;;;;12.80;100.00;101778.34;4990276;28;20450;-66
2023/05/21 00:55:08;;;;;;;14.55;6.13;;;;;;;12.78;100.00;101780.13;4989499;28;20058;-66
2023/05/21 00:57:36;;;;;;;13.73;5.90;;;;;;;12.58;100.00;101780.72;4990373;28;20056;-66
2023/05/21 01:00:07;;;;;;;15.35;5.05;;;;;;;12.73;100.00;101772.41;4990776;28;20488;-66
2023/05/21 01:02:35;;;;;;;13.95;6.18;;;;;;;12.59;100.00;101781.59;4989798;28;20472;-66
2023/05/21 01:05:04;;;;;;;17.17;7.53;;;;;;;12.59;100.00;101779.84;4989646;28;20054;-66
2023/05/21 01:07:37;;;;;;;14.38;5.85;;;;;;;12.73;100.00;101782.91;4990487;28;20050;-67
2023/05/21 01:10:06;;;;;;;14.65;5.43;;;;;;;12.76;100.00;101783.72;4990580;28;20113;-66
2023/05/21 01:12:36;;;;;;;16.70;6.03;;;;;;;12.89;100.00;101775.44;4979275;28;20503;-66
2023/05/21 01:15:04;;;;;;;12.57;5.45;;;;;;;12.62;100.00;101779.72;4989488;28;20137;-66
2023/05/21 01:17:32;;;;;;;11.35;4.43;;;;;;;12.86;100.00;101766.78;4992812;28;20085;-66
2023/05/21 01:20:01;;;;;;;13.05;6.18;;;;;;;12.85;100.00;101765.91;4973308;28;20413;-66
2023/05/21 01:22:31;;;;;;;9.57;3.65;;;;;;;13.17;100.00;101771.91;4990104;28;20050;-66
2023/05/21 01:25:01;;;;;;;10.93;4.40;;;;;;;13.24;100.00;101769.97;4989518;28;20050;-66
2023/05/21 01:27:28;;;;;;;13.20;5.30;;;;;;;13.33;100.00;101766.22;4990538;28;20078;-66
2023/05/21 01:29:55;;;;;;;9.32;3.78;;;;;;;13.21;100.00;101776.19;4990892;28;20447;-66
2023/05/21 01:32:46;;;;;;;8.55;3.60;;;;;;;13.24;100.00;101772.59;4989863;28;20489;-66
2023/05/21 01:35:26;;;;;;;9.85;3.63;;;;;;;13.24;100.00;101772.59;4989428;28;20090;-66
2023/05/21 01:38:08;;;;;;;8.63;3.30;;;;;;;13.35;100.00;101769.63;4988142;28;20050;-67
2023/05/21 01:40:52;;;;;;;7.78;3.10;;;;;;;13.42;100.00;101753.63;4987015;28;20059;-66
2023/05/21 01:43:21;;;;;;;7.82;2.95;;;;;;;13.54;100.00;101767.28;4986429;28;20436;-66
2023/05/21 01:45:54;;;;;;;9.15;3.22;;;;;;;13.59;100.00;101768.81;4988826;28;20046;-66
2023/05/21 01:48:24;;;;;;;8.02;3.08;;;;;;;13.70;100.00;101768.47;4989334;28;20053;-66
2023/05/21 01:50:54;;;;;;;8.35;2.65;;;;;;;13.76;100.00;101765.63;4990494;28;20499;-65
2023/05/21 01:53:21;;;;;;;7.00;2.67;;;;;;;13.81;100.00;101752.28;4990081;28;20173;-66
2023/05/21 01:55:48;;;;;;;6.82;2.35;;;;;;;13.92;100.00;101759.84;4991949;28;20081;-66
2023/05/21 01:58:15;;;;;;;9.00;3.90;;;;;;;13.75;100.00;101756.00;4989353;28;20046;-66
2023/05/21 02:00:44;;;;;;;7.50;3.00;;;;;;;13.85;100.00;101760.03;4990060;28;20488;-66
2023/05/21 02:03:13;;;;;;;15.15;3.08;;;;;;;13.96;100.00;101756.19;4989686;28;20068;-66
2023/05/21 02:05:40;;;;;;;8.30;3.08;;;;;;;13.89;100.00;101754.69;4989421;28;20502;-67
2023/05/21 02:08:07;;;;;;;7.35;2.95;;;;;;;14.04;100.00;101767.28;4989675;28;20068;-67
2023/05/21 02:10:35;;;;;;;6.95;2.65;;;;;;;13.84;100.00;101742.50;4986624;28;20073;-66
2023/05/21 02:13:02;;;;;;;7.75;3.15;;;;;;;13.90;100.00;101751.13;4985090;28;20395;-66
2023/05/21 02:15:29;;;;;;;8.90;2.83;;;;;;;14.03;100.00;101748.00;4992418;28;20061;-67
2023/05/21 02:17:57;;;;;;;8.27;3.15;;;;;;;13.99;100.00;101753.44;4992136;28;20526;-66
2023/05/21 02:20:24;;;;;;;8.63;3.05;;;;;;;13.97;100.00;101760.50;4993513;28;20050;-66
2023/05/21 02:22:50;;;;;;;7.85;2.60;;;;;;;13.99;100.00;101762.19;4993420;28;20054;-67
2023/05/21 02:25:21;;;;;;;8.05;3.13;;;;;;;14.02;100.00;101756.81;4992832;28;20392;-67
2023/05/21 02:27:52;;;;;;;10.40;3.42;;;;;;;14.02;100.00;101759.47;4992149;28;20145;-67
2023/05/21 02:30:19;;;;;;;8.38;2.92;;;;;;;14.15;100.00;101756.38;4992096;28;20074;-67
2023/05/21 02:32:47;;;;;;;8.57;3.60;;;;;;;14.07;100.00;101747.88;4993371;28;20058;-66
2023/05/21 02:35:14;;;;;;;8.30;2.92;;;;;;;14.08;100.00;101749.59;4998785;28;20432;-66
2023/05/21 02:37:42;;;;;;;7.97;3.20;;;;;;;14.03;100.00;101739.25;4993004;28;20057;-67
2023/05/21 02:40:10;;;;;;;6.93;2.60;;;;;;;14.04;100.00;101743.56;4992894;28;20046;-67
2023/05/21 02:42:38;;;;;;;11.55;3.03;;;;;;;13.99;100.00;101749.03;4993371;28;20050;-67
2023/05/21 02:45:10;;;;;;;8.90;3.45;;;;;;;14.11;100.00;101755.63;4991685;28;20057;-66
2023/05/21 02:47:37;;;;;;;8.77;3.30;;;;;;;14.15;100.00;101751.97;4992776;28;20126;-66
2023/05/21 02:50:06;;;;;;;8.60;3.33;;;;;;;14.12;100.00;101749.44;4992557;28;20058;-67
2023/05/21 02:52:33;;;;;;;13.32;3.95;;;;;;;14.11;100.00;101737.19;4992311;28;20057;-67
2023/05/21 02:55:00;;;;;;;8.63;3.45;;;;;;;14.14;100.00;101744.97;4991673;28;20141;-66
2023/05/21 02:57:27;;;;;;;7.70;3.30;;;;;;;13.91;100.00;101711.56;4991496;28;20052;-66
2023/05/21 02:59:53;;;;;;;7.72;3.08;;;;;;;14.23;100.00;101746.41;4991784;28;20732;-66
2023/05/21 03:02:20;;;;;;;7.85;3.10;;;;;;;14.30;100.00;101749.69;4974712;28;20141;-66
2023/05/21 03:04:47;;;;;;;10.40;3.05;;;;;;;14.27;100.00;101744.53;4991404;28;20045;-66
2023/05/21 03:07:17;;;;;;;9.55;3.75;;;;;;;14.18;100.00;101741.34;4971600;28;20444;-66
2023/05/21 03:09:45;;;;;;;8.35;3.00;;;;;;;14.22;100.00;101740.28;4990485;28;20046;-66
2023/05/21 03:12:12;;;;;;;10.05;3.08;;;;;;;14.39;100.00;101752.81;4975327;28;20050;-66
2023/05/21 03:14:41;;;;;;;7.55;2.90;;;;;;;14.41;100.00;101750.13;4991322;28;20054;-67
2023/05/21 03:17:12;;;;;;;8.30;3.03;;;;;;;14.42;100.00;101759.78;4992119;28;20092;-67
2023/05/21 03:19:43;;;;;;;9.68;3.50;;;;;;;14.47;100.00;101752.56;4993853;28;20060;-66
2023/05/21 03:22:10;;;;;;;9.20;3.00;;;;;;;14.36;100.00;101738.91;4992618;28;20137;-67
2023/05/21 03:24:40;;;;;;;10.10;3.00;;;;;;;14.46;100.00;101753.44;4991032;28;20503;-66
2023/05/21 03:27:07;;;;;;;11.77;3.03;;;;;;;14.42;100.00;101754.50;4992439;28;20347;-66
2023/05/21 03:29:33;;;;;;;8.43;3.08;;;;;;;14.40;100.00;101748.44;4991564;28;20130;-67
2023/05/21 03:32:01;;;;;;;8.27;3.10;;;;;;;14.52;100.00;101758.50;4991219;28;20090;-66
2023/05/21 03:34:29;;;;;;;8.27;2.70;;;;;;;14.49;100.00;101757.78;4991177;28;20093;-66
2023/05/21 03:36:55;;;;;;;9.27;3.60;;;;;;;14.36;100.00;101736.28;4991385;28;20065;-67
2023/05/21 03:39:22;;;;;;;6.78;2.78;;;;;;;14.56;100.00;101752.19;4991815;28;20480;-67
2023/05/21 03:41:49;;;;;;;9.40;3.20;;;;;;;14.53;100.00;101760.22;4991826;28;20052;-67
2023/05/21 03:44:16;;;;;;;7.80;3.28;;;;;;;14.51;100.00;101753.28;4990501;28;20050;-67
2023/05/21 03:46:44;;;;;;;8.52;3.35;;;;;;;14.48;100.00;101753.41;4991710;28;20396;-66
2023/05/21 03:49:11;;;;;;;7.72;2.95;;;;;;;14.45;100.00;101759.66;4994056;28;20463;-67
2023/05/21 03:51:38;;;;;;;9.50;3.92;;;;;;;14.39;100.00;101754.59;4991562;28;20186;-67
2023/05/21 03:54:05;;;;;;;9.52;3.80;;;;;;;14.46;100.00;101753.44;4991581;28;20058;-67
2023/05/21 03:56:32;;;;;;;9.25;3.45;;;;;;;14.50;100.00;101762.09;4991268;28;20416;-66
2023/05/21 03:58:58;;;;;;;10.68;3.60;;;;;;;14.52;100.00;101766.41;4990624;28;20507;-66
2023/05/21 04:01:27;;;;;;;8.65;3.35;;;;;;;14.53;100.00;101767.25;4978804;28;20046;-66
2023/05/21 04:03:54;;;;;;;8.10;3.42;;;;;;;14.51;100.00;101762.06;4990631;28;20088;-66
2023/05/21 04:06:21;;;;;;;8.45;3.67;;;;;;;14.58;100.00;101768.00;4990179;28;20157;-66
2023/05/21 04:08:48;;;;;;;9.65;3.67;;;;;;;14.50;100.00;101752.44;4990517;28;20050;-67
2023/05/21 04:11:15;;;;;;;8.13;3.33;;;;;;;14.61;100.00;101762.59;4991404;28;20086;-65
2023/05/21 04:13:42;;;;;;;8.30;3.20;;;;;;;14.69;100.00;101767.56;4991470;28;20046;-65
2023/05/21 04:16:09;;;;;;;8.45;3.28;;;;;;;14.65;100.00;101764.19;4989921;28;20132;-67
2023/05/21 04:18:36;;;;;;;8.40;3.10;;;;;;;14.70;100.00;101766.66;4978401;28;20058;-65
2023/05/21 04:21:03;;;;;;;7.50;3.00;;;;;;;14.72;100.00;101752.50;4990722;28;20145;-65
2023/05/21 04:23:30;;;;;;;9.25;2.75;;;;;;;14.79;100.00;101755.75;4990821;28;20042;-66
2023/05/21 04:25:56;;;;;;;7.68;2.97;;;;;;;14.79;100.00;101755.75;4989616;28;20050;-65
2023/05/21 04:28:23;;;;;;;7.53;2.78;;;;;;;14.76;100.00;101761.16;4989342;28;20046;-67
2023/05/21 04:30:50;;;;;;;8.30;3.10;;;;;;;14.76;100.00;101759.34;4989554;28;20460;-67
2023/05/21 04:33:19;;;;;;;9.60;3.50;;;;;;;14.69;100.00;101768.44;4989610;28;20050;-67
2023/05/21 04:35:48;;;;;;;7.32;3.08;;;;;;;14.64;100.00;101754.56;4990779;28;20042;-67
2023/05/21 04:38:19;;;;;;;7.82;2.90;;;;;;;14.71;100.00;101774.50;4987701;28;20254;-68
2023/05/21 04:40:51;;;;;;;9.98;4.00;;;;;;;14.57;100.00;101766.22;4988981;28;20056;-67
2023/05/21 04:43:24;;;;;;;6.88;3.00;;;;;;;14.51;100.00;101769.97;4988981;28;20582;-67
2023/05/21 04:45:55;;;;;;;7.85;2.90;;;;;;;14.09;100.00;101764.50;4988037;28;20046;-66
2023/05/21 04:48:23;;;;;;;7.07;2.42;;;;;;;13.91;100.00;101764.22;4989545;28;20050;-66
2023/05/21 04:50:52;;;;;;;5.60;1.95;;;;;;;13.85;100.00;101772.34;4989847;28;20057;-66
2023/05/21 04:53:19;;;;;;;7.47;3.05;;;;;;;13.61;100.00;101771.41;4988860;28;20050;-67
2023/05/21 04:55:46;;;;;;;7.65;2.60;;;;;;;13.63;100.00;101782.75;4988491;28;20054;-67
2023/05/21 04:58:16;;;;;;;5.97;2.05;;;;;;;13.58;100.00;101766.25;4987745;28;20160;-67
2023/05/21 05:00:45;;;;;;;7.43;2.30;;;;;;;13.66;100.00;101778.22;4989236;28;20053;-67
2023/05/21 05:03:13;;;;;;;6.75;2.35;;;;;;;13.47;100.00;101780.66;4988164;28;20061;-66
2023/05/21 05:05:40;;;;;;;6.38;2.22;;;;;;;13.46;100.00;101776.28;4987719;28;20401;-67
2023/05/21 05:08:07;;;;;;;6.13;2.40;;;;;;;13.46;100.00;101776.28;4990144;28;20046;-66
2023/05/21 05:10:35;;;;;;;7.85;2.53;;;;;;;13.53;100.00;101787.47;4990808;28;20046;-66
2023/05/21 05:13:02;;;;;;;7.03;2.55;;;;;;;13.42;100.00;101785.19;4989170;28;20739;-66
2023/05/21 05:15:28;;;;;;;6.43;2.05;;;;;;;13.34;100.00;101794.25;4989540;28;20058;-66
2023/05/21 05:17:55;;;;;;;6.78;2.35;;;;;;;13.38;100.00;101793.22;4990307;28;20050;-66
2023/05/21 05:20:22;;;;;;;5.38;1.90;;;;;;;13.34;100.00;101791.63;4992275;28;20078;-67
2023/05/21 05:22:49;;;;;;;4.82;1.90;;;;;;;13.28;100.00;101782.13;4990210;28;20808;-66
2023/05/21 05:25:15;;;;;;;4.53;1.55;;;;;;;13.22;100.00;101785.78;4989346;28;20058;-67
2023/05/21 05:27:42;;;;;;;4.93;1.80;;;;;;;13.10;100.00;101786.16;4988933;28;20488;-66
2023/05/21 05:30:09;;;;;;;5.22;1.80;;;;;;;13.07;100.00;101789.78;4990098;28;20049;-67
2023/05/21 05:32:36;;;;;;;7.30;2.40;;;;;;;13.02;100.00;101793.47;4990513;28;20105;-67
2023/05/21 05:35:04;;;;;;;6.07;2.10;;;;;;;13.05;100.00;101788.97;4989041;28;20473;-67
2023/05/21 05:37:32;;;;;;;6.13;2.10;;;;;;;13.05;100.00;101802.09;4990255;28;20158;-66
2023/05/21 05:39:58;;;;;;;6.57;2.30;;;;;;;13.01;100.00;101815.38;4990297;28;20055;-66
2023/05/21 05:42:25;;;;;;;6.57;2.10;;;;;;;13.10;100.00;101810.72;4990187;28;20050;-66
2023/05/21 05:44:52;;;;;;;5.55;2.00;;;;;;;13.10;100.00;101808.09;4988628;28;20449;-67
2023/05/21 05:47:18;;;;;;;6.47;2.15;;;;;;;13.07;100.00;101813.44;4990051;28;20046;-66
2023/05/21 05:49:45;;;;;;;7.75;2.60;;;;;;;13.12;100.00;101818.56;4993435;28;20053;-66
2023/05/21 05:52:12;;;;;;;6.50;2.03;;;;;;;13.15;100.00;101822.84;4993816;28;20475;-66
2023/05/21 05:54:39;;;;;;;5.78;1.90;;;;;;;13.20;100.00;101824.41;4992889;28;20046;-66
2023/05/21 05:57:06;;;;;;;7.18;2.00;;;;;;;13.17;100.00;101831.56;4995232;28;20050;-67
2023/05/21 05:59:32;;;;;;;4.35;1.50;;;;;;;13.15;100.00;101834.22;4992293;28;20306;-65
2023/05/21 06:02:00;;;;;;;2.63;1.10;;;;;;;13.11;100.00;101841.34;4993451;28;20057;-66
2023/05/21 06:04:28;;;;;;;4.00;1.30;;;;;;;13.01;100.00;101837.25;4990946;28;20050;-66
2023/05/21 06:06:59;;;;;;;1.65;0.90;;;;;;;12.89;100.00;101814.84;4992459;28;20504;-66
2023/05/21 06:09:26;;;;;;;2.35;1.10;;;;;;;13.12;100.00;101844.84;4993049;28;20078;-67
2023/05/21 06:11:53;;;;;;;1.50;0.80;;;;;;;13.14;100.00;101840.41;4993265;28;20053;-66
2023/05/21 06:14:20;;;;;;;1.50;0.88;;;;;;;13.23;100.00;101840.13;4986088;28;20046;-66
2023/05/21 06:16:47;;;;;;;2.47;0.90;;;;;;;13.19;100.00;101837.63;4992610;28;20049;-67
2023/05/21 06:19:13;;;;;;;1.35;0.82;;;;;;;13.20;100.00;101850.72;4992776;28;20244;-66
2023/05/21 06:21:40;;;;;;;2.47;1.00;;;;;;;13.10;100.00;101844.91;4993035;28;20046;-66
2023/05/21 06:24:07;;;;;;;1.52;0.80;;;;;;;13.09;100.00;101847.56;4992756;28;20089;-66
2023/05/21 06:26:34;;;;;;;1.13;0.75;;;;;;;13.03;100.00;101850.38;4992539;28;20042;-66
2023/05/21 06:29:02;;;;;;;0.70;0.70;;;;;;;13.14;100.00;101853.56;4992428;28;20058;-66
2023/05/21 06:31:31;;;;;;;1.15;0.70;;;;;;;13.21;100.00;101849.81;4992820;28;20153;-67
2023/05/21 06:33:59;;;;;;;1.45;0.85;;;;;;;13.24;100.00;101852.38;4992830;28;20638;-66
2023/05/21 06:36:28;;;;;;;0.88;0.70;;;;;;;13.17;100.00;101865.72;4983513;28;20421;-66
2023/05/21 06:38:55;;;;;;;1.00;0.70;;;;;;;13.08;100.00;101857.25;4991465;28;20476;-66
2023/05/21 06:41:23;;;;;;;1.08;0.80;;;;;;;13.34;100.00;101857.38;4994108;28;20141;-66
2023/05/21 06:43:50;;;;;;;1.88;0.90;;;;;;;13.41;100.00;101865.00;4980675;28;20061;-66
2023/05/21 06:46:17;;;;;;;0.82;0.70;;;;;;;13.24;100.00;101868.16;4991287;28;20065;-67
2023/05/21 06:48:44;;;;;;;2.10;0.90;;;;;;;13.28;100.00;101868.91;4983888;28;20374;-66
2023/05/21 06:51:11;;;;;;;0.93;0.70;;;;;;;13.17;100.00;101877.09;4968802;28;20043;-66
2023/05/21 06:53:38;;;;;;;2.38;0.80;;;;;;;13.05;100.00;101859.94;4985080;28;20494;-66
2023/05/21 06:56:05;;;;;;;1.65;0.80;;;;;;;13.03;100.00;101861.78;4990117;28;20561;-66
2023/05/21 06:58:32;;;;;;;0.80;0.70;;;;;;;13.15;100.00;101881.56;4984672;28;20051;-66
2023/05/21 07:01:00;;;;;;;1.13;0.70;;;;;;;13.11;100.00;101879.94;4978059;28;20047;-66
2023/05/21 07:03:26;;;;;;;1.88;0.80;;;;;;;13.18;100.00;101868.31;4989859;28;20092;-66
2023/05/21 07:05:53;;;;;;;1.17;0.70;;;;;;;13.20;100.00;101882.28;4990266;28;20050;-67
2023/05/21 07:08:20;;;;;;;1.67;0.70;;;;;;;13.17;100.00;101884.13;4980094;28;20145;-67
2023/05/21 07:10:48;;;;;;;1.08;0.73;;;;;;;13.03;100.00;101881.91;4980107;28;20057;-66
2023/05/21 07:13:15;;;;;;;1.73;0.70;;;;;;;13.07;100.00;101891.47;4989894;28;20457;-67
2023/05/21 07:15:41;;;;;;;1.52;0.80;;;;;;;12.89;100.00;101870.06;4991153;28;20046;-67
2023/05/21 07:18:08;;;;;;;1.10;0.70;;;;;;;13.08;100.00;101880.91;4989507;28;20170;-66
2023/05/21 07:20:35;;;;;;;1.58;0.80;;;;;;;13.15;100.00;101884.19;4975356;28;20101;-67
2023/05/21 07:23:02;;;;;;;1.88;0.80;;;;;;;13.17;100.00;101884.13;4988905;28;20054;-67
2023/05/21 07:25:29;;;;;;;2.17;1.00;;;;;;;12.93;100.00;101898.88;4987255;28;20544;-67
2023/05/21 07:27:56;;;;;;;2.78;0.80;;;;;;;12.95;100.00;101895.31;4989290;28;20050;-67
2023/05/21 07:30:23;;;;;;;0.95;0.70;;;;;;;13.02;100.00;101888.09;4991307;28;20042;-66
2023/05/21 07:32:49;;;;;;;1.30;0.80;;;;;;;13.04;100.00;101902.06;4991290;28;20046;-67
2023/05/21 07:35:16;;;;;;;6.90;1.02;;;;;;;13.00;100.00;101898.66;4989388;28;20113;-66
2023/05/21 07:37:43;;;;;;;1.60;0.80;;;;;;;12.71;100.00;101908.25;4989060;28;20058;-66
2023/05/21 07:40:10;;;;;;;1.35;0.80;;;;;;;12.64;100.00;101890.94;4980120;28;20073;-67
2023/05/21 07:42:37;;;;;;;1.45;0.85;;;;;;;12.81;100.00;101907.97;4984659;28;20043;-67
2023/05/21 07:45:05;;;;;;;3.08;0.95;;;;;;;12.69;100.00;101919.69;4983690;28;20231;-67
2023/05/21 07:47:33;;;;;;;2.78;1.00;;;;;;;12.98;100.00;101920.63;4990233;28;20046;-67
2023/05/21 07:50:00;;;;;;;1.55;0.80;;;;;;;12.81;100.00;101921.97;4998664;28;20519;-67
2023/05/21 07:52:28;;;;;;;1.88;0.88;;;;;;;12.97;100.00;101934.69;4992136;28;20109;-67
2023/05/21 07:54:55;;;;;;;1.17;0.80;;;;;;;13.08;100.00;101930.84;4969989;28;20459;-67
2023/05/21 07:57:22;;;;;;;2.10;0.80;;;;;;;12.91;100.00;101935.72;4984995;28;20065;-67
2023/05/21 07:59:52;;;;;;;0.70;0.70;;;;;;;12.99;100.00;101940.75;4989127;28;20142;-67
2023/05/21 08:02:19;;;;;;;1.63;0.75;;;;;;;12.80;100.00;101936.03;4960650;28;20057;-67
2023/05/21 08:04:46;;;;;;;0.60;0.60;;;;;;;12.67;100.00;101948.63;4988429;28;20657;-67
2023/05/21 08:07:15;;;;;;;1.23;0.73;;;;;;;12.61;100.00;101927.78;4989503;28;20061;-67
2023/05/21 08:09:43;;;;;;;3.42;1.23;;;;;;;12.62;100.00;101953.13;4990514;28;20519;-66
2023/05/21 08:12:14;;;;;;;1.15;0.70;;;;;;;12.65;100.00;101955.69;4971633;28;20113;-67
2023/05/21 08:14:41;;;;;;;2.45;0.88;;;;;;;12.56;100.00;101949.84;4990179;28;20082;-67
2023/05/21 08:17:10;;;;;;;2.05;0.82;;;;;;;12.56;100.00;101962.97;4990629;28;20073;-66
2023/05/21 08:19:37;;;;;;;0.60;0.60;;;;;;;12.65;100.00;101960.09;4990581;28;20503;-67
2023/05/21 08:22:08;;;;;;;1.23;0.80;;;;;;;12.64;100.00;101963.63;4991496;28;20081;-67
2023/05/21 08:24:35;;;;;;;2.22;0.80;;;;;;;12.70;100.00;101968.72;4989730;28;20046;-67
2023/05/21 08:27:04;;;;;;;1.05;0.80;;;;;;;12.86;100.00;101967.38;4989372;28;20054;-67
2023/05/21 08:29:31;;;;;;;0.60;0.60;;;;;;;12.97;100.00;101972.34;4970595;28;20053;-67
2023/05/21 08:31:58;;;;;;;1.08;0.70;;;;;;;12.85;100.00;101967.44;4990055;28;20072;-67
2023/05/21 08:34:26;;;;;;;1.27;0.70;;;;;;;12.65;100.00;101974.09;4973387;28;20053;-67
2023/05/21 08:36:54;;;;;;;2.00;0.80;;;;;;;12.69;100.00;101972.25;4981977;28;20054;-67
2023/05/21 08:39:20;;;;;;;1.27;0.70;;;;;;;12.80;100.00;101971.94;4988170;28;20042;-67
2023/05/21 08:41:52;;;;;;;1.42;0.80;;;;;;;12.99;100.00;101975.78;4990509;28;20153;-67
2023/05/21 08:44:25;;;;;;;1.10;0.70;;;;;;;12.97;100.00;101977.59;4971836;28;20053;-67
2023/05/21 08:46:56;;;;;;;1.50;0.80;;;;;;;12.98;100.00;101984.59;4973186;28;20523;-66
2023/05/21 08:49:33;;;;;;;2.85;0.80;;;;;;;12.62;100.00;101976.78;4990768;28;20089;-67
2023/05/21 08:52:01;;;;;;;1.67;0.80;;;;;;;12.57;100.00;101986.59;4992255;28;20058;-67
2023/05/21 08:54:28;;;;;;;0.98;0.70;;;;;;;12.37;100.00;101984.44;4988972;28;20047;-66
2023/05/21 08:56:58;;;;;;;2.15;0.80;;;;;;;12.82;100.00;101988.53;4990351;28;20165;-67
2023/05/21 08:59:26;;;;;;;2.35;0.98;;;;;;;12.96;100.00;101986.41;4990225;28;20388;-66
2023/05/21 09:01:54;;;;;;;0.63;0.60;;;;;;;13.04;100.00;102000.19;4972812;28;20097;-67
2023/05/21 09:04:22;;;;;;;0.95;0.70;;;;;;;12.89;100.00;101998.84;4988754;28;20443;-67
2023/05/21 09:06:50;;;;;;;1.10;0.80;;;;;;;12.54;100.00;101989.28;4972305;28;20128;-67
2023/05/21 09:09:32;;;;;;;1.05;0.70;;;;;;;12.70;100.00;101995.84;4988591;28;20749;-67
2023/05/21 09:11:59;;;;;;;1.35;0.80;;;;;;;12.90;100.00;102000.56;4989536;28;20473;-67
2023/05/21 09:14:27;;;;;;;1.08;0.70;;;;;;;12.81;100.00;101999.97;4989145;28;20050;-67
2023/05/21 09:16:54;;;;;;;0.77;0.68;;;;;;;12.90;100.00;102005.81;4991835;28;20046;-67
2023/05/21 09:19:25;;;;;;;1.10;0.70;;;;;;;12.70;100.00;102009.00;4989047;28;20061;-68
2023/05/21 09:22:01;;;;;;;1.20;0.70;;;;;;;12.66;100.00;102019.59;4958390;28;20051;-67
2023/05/21 09:24:31;;;;;;;2.05;0.70;;;;;;;12.62;100.00;102013.56;4995473;28;20056;-68
2023/05/21 09:27:05;;;;;;;0.85;0.70;;;;;;;12.70;100.00;102016.03;4991126;28;20486;-68
2023/05/21 09:29:34;;;;;;;1.30;0.80;;;;;;;12.51;100.00;102013.84;4992033;28;20447;-67
2023/05/21 09:32:06;;;;;;;2.25;1.00;;;;;;;12.68;100.00;102008.16;4981907;28;20050;-68
2023/05/21 09:34:35;;;;;;;1.02;0.73;;;;;;;12.73;100.00;102015.94;4991518;28;20049;-67
2023/05/21 09:37:14;;;;;;;1.70;0.75;;;;;;;12.90;100.00;102010.22;4975674;28;20416;-67
2023/05/21 09:39:52;;;;;;;1.35;0.80;;;;;;;12.99;100.00;102009.13;4990667;28;20529;-67
2023/05/21 09:42:20;;;;;;;1.08;0.80;;;;;;;12.97;100.00;102009.16;4992318;28;20141;-67
2023/05/21 09:44:47;;;;;;;0.77;0.70;;;;;;;12.92;100.00;102005.78;4974602;28;20136;-67
2023/05/21 09:47:19;;;;;;;1.50;0.80;;;;;;;13.01;100.00;102012.56;4964388;28;20142;-67
2023/05/21 09:49:46;;;;;;;3.20;1.13;;;;;;;13.15;100.00;101999.03;4991716;28;20447;-67
2023/05/21 09:52:22;;;;;;;0.90;0.70;;;;;;;13.25;100.00;102009.25;4991739;28;20515;-67
2023/05/21 09:54:51;;;;;;;2.10;0.82;;;;;;;13.03;100.00;102001.13;4992820;28;20476;-67
2023/05/21 09:57:23;;;;;;;1.38;0.80;;;;;;;12.84;100.00;101998.13;4990548;28;20159;-68
2023/05/21 09:59:52;;;;;;;3.00;0.85;;;;;;;13.14;100.00;101984.16;4969988;28;20043;-67
2023/05/21 10:02:25;;;;;;;1.35;0.80;;;;;;;13.41;100.00;102004.44;4991528;28;20050;-67
2023/05/21 10:04:55;;;;;;;4.35;0.90;;;;;;;13.38;100.00;102001.03;4984280;28;20077;-68
2023/05/21 10:07:28;;;;;;;1.33;0.80;;;;;;;13.41;100.00;102001.81;4961642;28;20056;-68
2023/05/21 10:09:58;;;;;;;1.77;0.88;;;;;;;13.36;100.00;101998.44;4982792;28;20100;-67
2023/05/21 10:12:29;;;;;;;1.30;0.90;;;;;;;13.54;100.00;101991.78;4991994;28;20479;-67
2023/05/21 10:15:02;;;;;;;1.30;0.70;;;;;;;13.25;100.00;101980.31;4990738;28;20121;-67
2023/05/21 10:17:29;;;;;;;2.38;0.90;;;;;;;13.15;100.00;101970.09;4992316;28;20334;-66
2023/05/21 10:19:59;;;;;;;1.60;0.88;;;;;;;13.16;100.00;101987.63;4924796;28;1968832;-67
2023/05/21 10:22:27;;;;;;;2.00;0.80;;;;;;;13.38;100.00;101986.09;4993488;28;20097;-67
2023/05/21 10:24:55;;;;;;;4.03;0.90;;;;;;;13.45;100.00;101987.66;4991768;28;20052;-68
2023/05/21 10:27:22;;;;;;;2.10;0.82;;;;;;;13.43;100.00;101970.19;4992970;28;20519;-68
2023/05/21 10:29:50;;;;;;;0.80;0.70;;;;;;;13.57;100.00;101993.47;4995965;28;20050;-67
2023/05/21 10:32:20;;;;;;;2.03;0.98;;;;;;;13.20;100.00;101989.25;4992756;28;20062;-67
2023/05/21 10:34:48;;;;;;;2.67;1.10;;;;;;;13.30;100.00;101994.19;4974548;28;20054;-67
2023/05/21 10:37:42;;;;;;;5.28;0.98;;;;;;;13.60;100.00;101983.72;4974577;28;20058;-68
2023/05/21 10:40:13;;;;;;;2.15;0.95;;;;;;;13.59;100.00;101987.25;4989511;28;20133;-68
2023/05/21 10:42:44;;;;;;;2.25;0.90;;;;;;;13.62;100.00;101991.56;4968760;28;20065;-67
2023/05/21 10:45:42;;;;;;;2.83;1.00;;;;;;;13.48;100.00;101982.31;4990447;28;20129;-67
2023/05/21 10:48:30;;;;;;;2.10;0.90;;;;;;;13.53;100.00;101991.81;4990973;28;20093;-66
2023/05/21 10:51:26;;;;;;;3.60;1.20;;;;;;;13.49;100.00;101977.88;4991271;28;20125;-66
2023/05/21 10:54:31;;;;;;;2.60;1.00;;;;;;;13.59;100.00;101978.50;4990157;28;20494;-66
2023/05/21 10:57:18;;;;;;;3.22;1.30;;;;;;;13.56;100.00;101984.69;4983912;28;20421;-66
2023/05/21 10:59:48;;;;;;;2.47;1.10;;;;;;;13.69;100.00;101987.84;4989220;28;20041;-65
2023/05/21 11:02:19;;;;;;;2.22;1.00;;;;;;;13.65;100.00;101979.19;4974352;28;20124;-65
2023/05/21 11:04:47;;;;;;;1.77;0.93;;;;;;;13.59;100.00;101981.97;4971624;28;20133;-66
2023/05/21 11:07:23;;;;;;;4.05;1.30;;;;;;;13.72;100.00;101987.72;4987503;28;20050;-65
2023/05/21 11:09:50;;;;;;;3.72;1.33;;;;;;;13.66;100.00;101980.88;4986017;28;20050;-66
2023/05/21 11:12:18;;;;;;;1.80;1.00;;;;;;;13.66;100.00;101980.88;4985463;28;20054;-65
2023/05/21 11:14:56;;;;;;;3.17;1.27;;;;;;;13.77;100.00;101984.97;4966336;28;20393;-66
2023/05/21 11:17:40;;;;;;;3.17;1.20;;;;;;;13.63;100.00;101975.72;4979664;28;20077;-66
2023/05/21 11:20:10;;;;;;;2.08;1.05;;;;;;;13.58;100.00;101982.00;4985613;28;20447;-66
2023/05/21 11:22:37;;;;;;;3.42;1.38;;;;;;;13.38;100.00;101985.25;4982216;28;20050;-67
2023/05/21 11:25:05;;;;;;;3.95;1.30;;;;;;;13.71;100.00;101975.47;4987496;28;20523;-67